sensor_id;sensor_type;location;lat;lon;timestamp;noise_LAeq;noise_LA_min;noise_LA_max;noise_LA01;noise_LA95
41518;Laerm;27249;48.094;-1.690;2024-01-11T00:00:28;48.33;40.13;63.48;;
41518;Laerm;27249;48.094;-1.690;2024-01-11T00:02:53;45.32;40.98;58.70;;
41518;Laerm;27249;48.094;-1.690;2024-01-11T00:05:18;48.05;40.53;60.55;;
41518;Laerm;27249;48.094;-1.690;2024-01-11T00:07:44;48.00;40.53;59.72;;
41518;Laerm;27249;48.094;-1.690;2024-01-11T00:10:09;51.23;40.89;65.43;;
41518;Laerm;27249;48.094;-1.690;2024-01-11T00:12:34;54.22;40.13;68.40;;
41518;Laerm;27249;48.094;-1.690;2024-01-11T00:15:01;48.94;39.58;63.05;;
41518;Laerm;27249;48.094;-1.690;2024-01-11T00:17:26;51.34;40.03;64.15;;
41518;Laerm;27249;48.094;-1.690;2024-01-11T00:19:52;42.78;39.58;48.63;;
41518;Laerm;27249;48.094;-1.690;2024-01-11T00:22:18;42.67;40.43;46.28;;
41518;Laerm;27249;48.094;-1.690;2024-01-11T00:24:43;50.56;40.53;63.96;;
41518;Laerm;27249;48.094;-1.690;2024-01-11T00:27:08;52.45;40.23;67.90;;
41518;Laerm;27249;48.094;-1.690;2024-01-11T00:29:35;42.82;39.70;47.10;;
41518;Laerm;27249;48.094;-1.690;2024-01-11T00:32:00;42.53;39.08;48.21;;
41518;Laerm;27249;48.094;-1.690;2024-01-11T00:34:25;44.24;39.70;54.39;;
41518;Laerm;27249;48.094;-1.690;2024-01-11T00:36:51;42.38;38.95;46.10;;
41518;Laerm;27249;48.094;-1.690;2024-01-11T00:39:17;50.35;39.58;63.39;;
41518;Laerm;27249;48.094;-1.690;2024-01-11T00:41:42;42.46;38.67;46.55;;
41518;Laerm;27249;48.094;-1.690;2024-01-11T00:44:07;42.61;39.21;48.69;;
41518;Laerm;27249;48.094;-1.690;2024-01-11T00:46:32;50.52;40.80;61.35;;
41518;Laerm;27249;48.094;-1.690;2024-01-11T00:48:58;47.02;40.89;61.64;;
41518;Laerm;27249;48.094;-1.690;2024-01-11T00:51:23;49.12;40.23;60.74;;
41518;Laerm;27249;48.094;-1.690;2024-01-11T00:53:48;46.66;39.46;62.59;;
41518;Laerm;27249;48.094;-1.690;2024-01-11T00:56:17;45.03;39.58;60.29;;
41518;Laerm;27249;48.094;-1.690;2024-01-11T00:58:42;42.58;39.58;48.74;;
41518;Laerm;27249;48.094;-1.690;2024-01-11T01:01:11;50.37;40.33;66.65;;
41518;Laerm;27249;48.094;-1.690;2024-01-11T01:03:36;42.39;39.21;53.22;;
41518;Laerm;27249;48.094;-1.690;2024-01-11T01:06:01;42.79;39.35;46.97;;
41518;Laerm;27249;48.094;-1.690;2024-01-11T01:08:27;42.65;39.58;45.63;;
41518;Laerm;27249;48.094;-1.690;2024-01-11T01:10:52;48.20;39.70;60.77;;
41518;Laerm;27249;48.094;-1.690;2024-01-11T01:13:18;46.86;40.03;59.33;;
41518;Laerm;27249;48.094;-1.690;2024-01-11T01:15:43;43.25;40.33;46.35;;
41518;Laerm;27249;48.094;-1.690;2024-01-11T01:18:08;43.02;40.43;46.02;;
41518;Laerm;27249;48.094;-1.690;2024-01-11T01:20:33;42.52;40.13;46.18;;
41518;Laerm;27249;48.094;-1.690;2024-01-11T01:22:58;50.11;40.13;61.75;;
41518;Laerm;27249;48.094;-1.690;2024-01-11T01:25:24;42.31;39.21;45.89;;
41518;Laerm;27249;48.094;-1.690;2024-01-11T01:27:49;46.94;40.13;61.06;;
41518;Laerm;27249;48.094;-1.690;2024-01-11T01:30:14;42.80;39.34;46.13;;
41518;Laerm;27249;48.094;-1.690;2024-01-11T01:32:40;44.90;39.21;56.32;;
41518;Laerm;27249;48.094;-1.690;2024-01-11T01:35:06;48.92;40.53;62.79;;
41518;Laerm;27249;48.094;-1.690;2024-01-11T01:37:31;43.75;40.23;53.90;;
41518;Laerm;27249;48.094;-1.690;2024-01-11T01:39:56;44.49;39.92;60.16;;
41518;Laerm;27249;48.094;-1.690;2024-01-11T01:42:21;46.73;40.80;62.33;;
41518;Laerm;27249;48.094;-1.690;2024-01-11T01:44:47;42.96;40.43;45.86;;
41518;Laerm;27249;48.094;-1.690;2024-01-11T01:47:12;42.58;39.70;46.52;;
41518;Laerm;27249;48.094;-1.690;2024-01-11T01:49:38;42.48;39.46;46.02;;
41518;Laerm;27249;48.094;-1.690;2024-01-11T01:52:04;42.85;39.58;54.45;;
41518;Laerm;27249;48.094;-1.690;2024-01-11T01:54:30;47.44;40.13;58.65;;
41518;Laerm;27249;48.094;-1.690;2024-01-11T01:56:57;47.87;40.71;62.00;;
41518;Laerm;27249;48.094;-1.690;2024-01-11T01:59:22;52.31;39.99;69.55;;
41518;Laerm;27249;48.094;-1.690;2024-01-11T02:01:49;42.81;40.03;46.06;;
41518;Laerm;27249;48.094;-1.690;2024-01-11T02:04:15;49.32;39.46;62.42;;
41518;Laerm;27249;48.094;-1.690;2024-01-11T02:06:40;45.86;40.33;58.23;;
41518;Laerm;27249;48.094;-1.690;2024-01-11T02:09:05;42.87;40.33;46.78;;
41518;Laerm;27249;48.094;-1.690;2024-01-11T02:11:32;46.62;39.70;57.90;;
41518;Laerm;27249;48.094;-1.690;2024-01-11T02:13:58;46.57;39.46;61.60;;
41518;Laerm;27249;48.094;-1.690;2024-01-11T02:16:24;49.88;41.82;60.34;;
41518;Laerm;27249;48.094;-1.690;2024-01-11T02:18:49;46.84;40.13;56.43;;
41518;Laerm;27249;48.094;-1.690;2024-01-11T02:21:14;48.40;39.81;66.29;;
41518;Laerm;27249;48.094;-1.690;2024-01-11T02:23:43;42.91;39.92;45.48;;
41518;Laerm;27249;48.094;-1.690;2024-01-11T02:26:13;47.08;40.23;58.37;;
41518;Laerm;27249;48.094;-1.690;2024-01-11T02:28:38;48.48;41.30;64.10;;
41518;Laerm;27249;48.094;-1.690;2024-01-11T02:31:07;48.44;40.89;59.49;;
41518;Laerm;27249;48.094;-1.690;2024-01-11T02:33:33;47.19;40.33;60.48;;
41518;Laerm;27249;48.094;-1.690;2024-01-11T02:35:58;45.85;39.70;60.78;;
41518;Laerm;27249;48.094;-1.690;2024-01-11T02:38:23;46.34;39.58;60.68;;
41518;Laerm;27249;48.094;-1.690;2024-01-11T02:40:48;44.05;41.22;47.88;;
41518;Laerm;27249;48.094;-1.690;2024-01-11T02:43:15;46.55;40.98;58.11;;
41518;Laerm;27249;48.094;-1.690;2024-01-11T02:45:40;46.43;40.53;57.22;;
41518;Laerm;27249;48.094;-1.690;2024-01-11T02:48:05;42.76;40.23;45.91;;
41518;Laerm;27249;48.094;-1.690;2024-01-11T02:50:30;42.90;40.33;46.40;;
41518;Laerm;27249;48.094;-1.690;2024-01-11T02:52:56;43.20;40.03;54.94;;
41518;Laerm;27249;48.094;-1.690;2024-01-11T02:55:21;43.89;40.71;69.05;;
41518;Laerm;27249;48.094;-1.690;2024-01-11T02:57:46;45.68;40.43;57.08;;
41518;Laerm;27249;48.094;-1.690;2024-01-11T03:00:11;49.64;40.71;59.76;;
41518;Laerm;27249;48.094;-1.690;2024-01-11T03:02:37;44.04;40.62;51.78;;
41518;Laerm;27249;48.094;-1.690;2024-01-11T03:05:03;50.68;40.71;62.18;;
41518;Laerm;27249;48.094;-1.690;2024-01-11T03:07:28;52.53;41.53;67.50;;
41518;Laerm;27249;48.094;-1.690;2024-01-11T03:09:55;44.72;40.33;54.42;;
41518;Laerm;27249;48.094;-1.690;2024-01-11T03:12:20;43.09;40.62;46.10;;
41518;Laerm;27249;48.094;-1.690;2024-01-11T03:14:45;43.11;40.33;46.18;;
41518;Laerm;27249;48.094;-1.690;2024-01-11T03:17:11;47.60;40.23;58.73;;
41518;Laerm;27249;48.094;-1.690;2024-01-11T03:19:39;43.32;40.13;55.99;;
41518;Laerm;27249;48.094;-1.690;2024-01-11T03:22:04;43.81;40.62;52.10;;
41518;Laerm;27249;48.094;-1.690;2024-01-11T03:24:31;47.80;40.53;64.87;;
41518;Laerm;27249;48.094;-1.690;2024-01-11T03:26:58;49.26;41.82;60.21;;
41518;Laerm;27249;48.094;-1.690;2024-01-11T03:29:23;49.18;40.53;63.48;;
41518;Laerm;27249;48.094;-1.690;2024-01-11T03:31:48;50.25;41.89;57.99;;
41518;Laerm;27249;48.094;-1.690;2024-01-11T03:34:14;49.58;40.43;65.29;;
41518;Laerm;27249;48.094;-1.690;2024-01-11T03:36:39;50.33;40.79;64.75;;
41518;Laerm;27249;48.094;-1.690;2024-01-11T03:39:05;47.43;40.33;62.64;;
41518;Laerm;27249;48.094;-1.690;2024-01-11T03:41:30;53.67;40.71;64.98;;
41518;Laerm;27249;48.094;-1.690;2024-01-11T03:43:55;49.87;39.08;63.53;;
41518;Laerm;27249;48.094;-1.690;2024-01-11T03:46:21;52.10;40.98;65.38;;
41518;Laerm;27249;48.094;-1.690;2024-01-11T03:48:46;46.66;41.14;58.10;;
41518;Laerm;27249;48.094;-1.690;2024-01-11T03:51:11;48.87;40.53;62.49;;
41518;Laerm;27249;48.094;-1.690;2024-01-11T03:53:37;51.71;42.22;63.02;;
41518;Laerm;27249;48.094;-1.690;2024-01-11T03:56:02;49.02;41.75;61.82;;
41518;Laerm;27249;48.094;-1.690;2024-01-11T03:58:27;52.00;41.53;61.51;;
41518;Laerm;27249;48.094;-1.690;2024-01-11T04:00:52;52.64;41.75;64.91;;
41518;Laerm;27249;48.094;-1.690;2024-01-11T04:03:18;46.86;40.98;60.08;;
41518;Laerm;27249;48.094;-1.690;2024-01-11T04:05:43;43.28;39.81;47.30;;
41518;Laerm;27249;48.094;-1.690;2024-01-11T04:08:08;51.05;41.89;60.14;;
41518;Laerm;27249;48.094;-1.690;2024-01-11T04:10:33;45.31;41.22;55.42;;
41518;Laerm;27249;48.094;-1.690;2024-01-11T04:12:58;50.30;41.89;62.65;;
41518;Laerm;27249;48.094;-1.690;2024-01-11T04:15:24;48.22;40.89;60.53;;
41518;Laerm;27249;48.094;-1.690;2024-01-11T04:17:50;48.92;40.89;59.77;;
41518;Laerm;27249;48.094;-1.690;2024-01-11T04:20:15;51.41;42.09;60.98;;
41518;Laerm;27249;48.094;-1.690;2024-01-11T04:22:40;51.04;41.06;63.44;;
41518;Laerm;27249;48.094;-1.690;2024-01-11T04:25:06;48.40;40.23;59.50;;
41518;Laerm;27249;48.094;-1.690;2024-01-11T04:27:31;46.90;40.89;58.99;;
41518;Laerm;27249;48.094;-1.690;2024-01-11T04:29:56;49.85;41.14;58.87;;
41518;Laerm;27249;48.094;-1.690;2024-01-11T04:32:21;50.82;41.30;60.04;;
41518;Laerm;27249;48.094;-1.690;2024-01-11T04:34:47;49.63;41.75;61.01;;
41518;Laerm;27249;48.094;-1.690;2024-01-11T04:37:12;50.11;42.93;58.90;;
41518;Laerm;27249;48.094;-1.690;2024-01-11T04:39:37;53.09;41.22;67.90;;
41518;Laerm;27249;48.094;-1.690;2024-01-11T04:42:02;43.69;41.06;50.26;;
41518;Laerm;27249;48.094;-1.690;2024-01-11T04:44:28;53.04;42.29;63.10;;
41518;Laerm;27249;48.094;-1.690;2024-01-11T04:46:53;51.30;41.14;62.14;;
41518;Laerm;27249;48.094;-1.690;2024-01-11T04:49:18;52.25;41.61;64.02;;
41518;Laerm;27249;48.094;-1.690;2024-01-11T04:51:43;47.52;41.30;57.87;;
41518;Laerm;27249;48.094;-1.690;2024-01-11T04:54:09;53.42;42.82;60.78;;
41518;Laerm;27249;48.094;-1.690;2024-01-11T04:56:34;51.01;41.68;59.43;;
41518;Laerm;27249;48.094;-1.690;2024-01-11T04:58:59;48.50;42.16;58.50;;
41518;Laerm;27249;48.094;-1.690;2024-01-11T05:01:24;47.46;41.46;57.30;;
41518;Laerm;27249;48.094;-1.690;2024-01-11T05:03:49;47.48;41.61;59.29;;
41518;Laerm;27249;48.094;-1.690;2024-01-11T05:06:18;52.41;41.68;66.24;;
41518;Laerm;27249;48.094;-1.690;2024-01-11T05:08:44;46.49;41.06;60.71;;
41518;Laerm;27249;48.094;-1.690;2024-01-11T05:11:19;51.58;42.88;60.76;;
41518;Laerm;27249;48.094;-1.690;2024-01-11T05:13:45;53.32;41.89;62.33;;
41518;Laerm;27249;48.094;-1.690;2024-01-11T05:16:22;51.03;42.09;62.30;;
41518;Laerm;27249;48.094;-1.690;2024-01-11T05:18:48;53.99;43.49;73.81;;
41518;Laerm;27249;48.094;-1.690;2024-01-11T05:21:13;56.79;43.44;75.44;;
41518;Laerm;27249;48.094;-1.690;2024-01-11T05:23:40;53.88;44.80;61.65;;
41518;Laerm;27249;48.094;-1.690;2024-01-11T05:26:05;49.34;42.09;60.17;;
41518;Laerm;27249;48.094;-1.690;2024-01-11T05:28:30;51.44;43.19;61.76;;
41518;Laerm;27249;48.094;-1.690;2024-01-11T05:30:56;50.94;41.75;65.27;;
41518;Laerm;27249;48.094;-1.690;2024-01-11T05:33:21;53.12;44.47;63.96;;
41518;Laerm;27249;48.094;-1.690;2024-01-11T05:35:46;51.45;42.76;65.52;;
41518;Laerm;27249;48.094;-1.690;2024-01-11T05:38:11;54.08;43.90;66.31;;
41518;Laerm;27249;48.094;-1.690;2024-01-11T05:40:36;53.12;43.99;61.54;;
41518;Laerm;27249;48.094;-1.690;2024-01-11T05:43:02;52.73;42.88;60.75;;
41518;Laerm;27249;48.094;-1.690;2024-01-11T05:45:27;54.60;43.29;67.31;;
41518;Laerm;27249;48.094;-1.690;2024-01-11T05:47:52;51.38;42.88;61.98;;
41518;Laerm;27249;48.094;-1.690;2024-01-11T05:50:17;57.05;46.05;69.82;;
41518;Laerm;27249;48.094;-1.690;2024-01-11T05:52:43;55.55;45.91;68.41;;
41518;Laerm;27249;48.094;-1.690;2024-01-11T05:55:08;53.96;45.57;61.51;;
41518;Laerm;27249;48.094;-1.690;2024-01-11T05:57:34;55.04;46.05;68.49;;
41518;Laerm;27249;48.094;-1.690;2024-01-11T05:59:59;55.91;45.62;68.81;;
41518;Laerm;27249;48.094;-1.690;2024-01-11T06:02:25;55.57;46.43;62.72;;
41518;Laerm;27249;48.094;-1.690;2024-01-11T06:04:50;54.58;45.86;67.07;;
41518;Laerm;27249;48.094;-1.690;2024-01-11T06:07:15;54.93;44.51;65.32;;
41518;Laerm;27249;48.094;-1.690;2024-01-11T06:09:42;56.31;48.18;63.80;;
41518;Laerm;27249;48.094;-1.690;2024-01-11T06:12:08;54.62;45.39;64.90;;
41518;Laerm;27249;48.094;-1.690;2024-01-11T06:14:34;55.68;44.97;75.09;;
41518;Laerm;27249;48.094;-1.690;2024-01-11T06:16:59;57.54;50.82;69.67;;
41518;Laerm;27249;48.094;-1.690;2024-01-11T06:19:24;58.10;49.11;69.01;;
41518;Laerm;27249;48.094;-1.690;2024-01-11T06:21:49;57.20;48.05;78.88;;
41518;Laerm;27249;48.094;-1.690;2024-01-11T06:24:14;57.07;45.94;68.92;;
41518;Laerm;27249;48.094;-1.690;2024-01-11T06:26:40;57.10;49.10;62.72;;
41518;Laerm;27249;48.094;-1.690;2024-01-11T06:29:05;56.52;46.66;64.75;;
41518;Laerm;27249;48.094;-1.690;2024-01-11T06:31:30;57.57;49.49;64.15;;
41518;Laerm;27249;48.094;-1.690;2024-01-11T06:33:55;56.69;49.40;64.42;;
41518;Laerm;27249;48.094;-1.690;2024-01-11T06:36:21;57.87;51.29;66.01;;
41518;Laerm;27249;48.094;-1.690;2024-01-11T06:38:46;56.19;47.68;63.25;;
41518;Laerm;27249;48.094;-1.690;2024-01-11T06:41:11;58.28;51.90;63.43;;
41518;Laerm;27249;48.094;-1.690;2024-01-11T06:43:36;57.00;48.88;63.00;;
41518;Laerm;27249;48.094;-1.690;2024-01-11T06:46:02;57.70;50.65;64.87;;
41518;Laerm;27249;48.094;-1.690;2024-01-11T06:48:28;58.40;50.57;66.47;;
41518;Laerm;27249;48.094;-1.690;2024-01-11T06:50:53;58.43;52.56;63.06;;
41518;Laerm;27249;48.094;-1.690;2024-01-11T06:53:18;56.86;49.46;71.55;;
41518;Laerm;27249;48.094;-1.690;2024-01-11T06:55:43;56.75;47.12;61.67;;
41518;Laerm;27249;48.094;-1.690;2024-01-11T06:58:09;57.67;51.14;62.78;;
41518;Laerm;27249;48.094;-1.690;2024-01-11T07:00:34;58.48;52.41;63.77;;
41518;Laerm;27249;48.094;-1.690;2024-01-11T07:03:00;57.16;50.84;65.19;;
41518;Laerm;27249;48.094;-1.690;2024-01-11T07:05:25;56.70;51.29;63.62;;
41518;Laerm;27249;48.094;-1.690;2024-01-11T07:07:52;57.76;52.15;63.67;;
41518;Laerm;27249;48.094;-1.690;2024-01-11T07:10:17;58.28;51.62;66.09;;
41518;Laerm;27249;48.094;-1.690;2024-01-11T07:12:42;58.25;53.08;64.98;;
41518;Laerm;27249;48.094;-1.690;2024-01-11T07:15:08;57.11;49.92;64.38;;
41518;Laerm;27249;48.094;-1.690;2024-01-11T07:17:33;59.05;51.80;70.73;;
41518;Laerm;27249;48.094;-1.690;2024-01-11T07:19:58;57.83;52.77;61.81;;
41518;Laerm;27249;48.094;-1.690;2024-01-11T07:22:24;56.78;48.51;65.14;;
41518;Laerm;27249;48.094;-1.690;2024-01-11T07:24:49;57.90;50.89;64.31;;
41518;Laerm;27249;48.094;-1.690;2024-01-11T07:27:14;57.13;51.30;63.10;;
41518;Laerm;27249;48.094;-1.690;2024-01-11T07:29:39;57.79;54.33;63.36;;
41518;Laerm;27249;48.094;-1.690;2024-01-11T07:32:05;57.28;49.93;62.84;;
41518;Laerm;27249;48.094;-1.690;2024-01-11T07:34:30;57.93;52.31;64.93;;
41518;Laerm;27249;48.094;-1.690;2024-01-11T07:36:55;58.31;53.24;63.10;;
41518;Laerm;27249;48.094;-1.690;2024-01-11T07:39:22;58.69;52.95;72.66;;
41518;Laerm;27249;48.094;-1.690;2024-01-11T07:41:47;57.38;50.04;69.12;;
41518;Laerm;27249;48.094;-1.690;2024-01-11T07:44:13;57.62;52.29;62.46;;
41518;Laerm;27249;48.094;-1.690;2024-01-11T07:46:38;57.29;52.06;69.27;;
41518;Laerm;27249;48.094;-1.690;2024-01-11T07:49:03;58.07;53.17;63.33;;
41518;Laerm;27249;48.094;-1.690;2024-01-11T07:51:29;58.03;47.96;66.98;;
41518;Laerm;27249;48.094;-1.690;2024-01-11T07:53:54;58.48;52.56;70.14;;
41518;Laerm;27249;48.094;-1.690;2024-01-11T07:56:20;58.53;51.84;69.39;;
41518;Laerm;27249;48.094;-1.690;2024-01-11T07:58:45;57.20;48.28;63.16;;
41518;Laerm;27249;48.094;-1.690;2024-01-11T08:01:11;57.71;49.46;65.12;;
41518;Laerm;27249;48.094;-1.690;2024-01-11T08:03:37;57.59;51.46;70.31;;
41518;Laerm;27249;48.094;-1.690;2024-01-11T08:06:02;57.55;51.51;64.93;;
41518;Laerm;27249;48.094;-1.690;2024-01-11T08:08:28;56.76;48.60;65.49;;
41518;Laerm;27249;48.094;-1.690;2024-01-11T08:10:53;56.63;50.29;62.66;;
41518;Laerm;27249;48.094;-1.690;2024-01-11T08:13:18;56.08;49.16;62.63;;
41518;Laerm;27249;48.094;-1.690;2024-01-11T08:15:44;58.13;50.98;66.46;;
41518;Laerm;27249;48.094;-1.690;2024-01-11T08:18:09;58.24;50.81;72.78;;
41518;Laerm;27249;48.094;-1.690;2024-01-11T08:20:34;58.18;51.94;74.70;;
41518;Laerm;27249;48.094;-1.690;2024-01-11T08:23:00;56.96;50.98;63.81;;
41518;Laerm;27249;48.094;-1.690;2024-01-11T08:25:25;56.46;50.77;66.60;;
41518;Laerm;27249;48.094;-1.690;2024-01-11T08:27:50;57.55;48.88;64.10;;
41518;Laerm;27249;48.094;-1.690;2024-01-11T08:30:15;57.09;45.30;64.04;;
41518;Laerm;27249;48.094;-1.690;2024-01-11T08:32:41;56.02;49.74;61.69;;
41518;Laerm;27249;48.094;-1.690;2024-01-11T08:35:08;56.69;49.59;63.24;;
41518;Laerm;27249;48.094;-1.690;2024-01-11T08:37:34;56.32;48.91;70.10;;
41518;Laerm;27249;48.094;-1.690;2024-01-11T08:40:01;55.70;48.60;61.50;;
41518;Laerm;27249;48.094;-1.690;2024-01-11T08:42:27;58.19;51.92;78.56;;
41518;Laerm;27249;48.094;-1.690;2024-01-11T08:44:53;55.99;47.91;62.18;;
41518;Laerm;27249;48.094;-1.690;2024-01-11T08:47:18;56.63;51.01;72.83;;
41518;Laerm;27249;48.094;-1.690;2024-01-11T08:49:43;57.58;51.56;64.68;;
41518;Laerm;27249;48.094;-1.690;2024-01-11T08:52:08;57.08;49.49;64.14;;
41518;Laerm;27249;48.094;-1.690;2024-01-11T08:54:34;55.70;46.66;63.55;;
41518;Laerm;27249;48.094;-1.690;2024-01-11T08:56:59;57.56;52.11;66.22;;
41518;Laerm;27249;48.094;-1.690;2024-01-11T08:59:24;57.65;50.16;63.79;;
41518;Laerm;27249;48.094;-1.690;2024-01-11T09:01:51;55.87;50.32;61.92;;
41518;Laerm;27249;48.094;-1.690;2024-01-11T09:04:16;56.74;50.48;67.56;;
41518;Laerm;27249;48.094;-1.690;2024-01-11T09:06:42;57.05;51.37;69.44;;
41518;Laerm;27249;48.094;-1.690;2024-01-11T09:09:07;57.12;49.27;72.57;;
41518;Laerm;27249;48.094;-1.690;2024-01-11T09:11:35;58.53;49.18;65.38;;
41518;Laerm;27249;48.094;-1.690;2024-01-11T09:14:00;56.90;50.64;61.60;;
41518;Laerm;27249;48.094;-1.690;2024-01-11T09:16:25;56.11;47.26;62.04;;
41518;Laerm;27249;48.094;-1.690;2024-01-11T09:18:50;57.55;49.65;72.16;;
41518;Laerm;27249;48.094;-1.690;2024-01-11T09:21:16;57.25;49.84;64.70;;
41518;Laerm;27249;48.094;-1.690;2024-01-11T09:23:41;57.46;50.85;63.41;;
41518;Laerm;27249;48.094;-1.690;2024-01-11T09:26:06;56.40;48.28;71.01;;
41518;Laerm;27249;48.094;-1.690;2024-01-11T09:28:32;55.56;48.20;61.95;;
41518;Laerm;27249;48.094;-1.690;2024-01-11T09:30:57;56.53;49.02;62.12;;
41518;Laerm;27249;48.094;-1.690;2024-01-11T09:33:25;56.52;50.16;65.27;;
41518;Laerm;27249;48.094;-1.690;2024-01-11T09:35:50;56.95;47.34;69.38;;
41518;Laerm;27249;48.094;-1.690;2024-01-11T09:38:15;57.05;50.38;64.03;;
41518;Laerm;27249;48.094;-1.690;2024-01-11T09:40:40;57.80;48.51;67.46;;
41518;Laerm;27249;48.094;-1.690;2024-01-11T09:43:05;58.27;51.13;64.29;;
41518;Laerm;27249;48.094;-1.690;2024-01-11T09:45:31;63.14;51.04;90.27;;
41518;Laerm;27249;48.094;-1.690;2024-01-11T09:47:56;56.96;49.43;65.97;;
41518;Laerm;27249;48.094;-1.690;2024-01-11T09:50:22;58.76;54.08;69.00;;
41518;Laerm;27249;48.094;-1.690;2024-01-11T09:52:48;57.29;50.21;67.11;;
41518;Laerm;27249;48.094;-1.690;2024-01-11T09:55:14;56.84;49.70;63.54;;
41518;Laerm;27249;48.094;-1.690;2024-01-11T09:57:41;58.57;50.75;66.26;;
41518;Laerm;27249;48.094;-1.690;2024-01-11T10:00:09;58.87;52.48;73.24;;
41518;Laerm;27249;48.094;-1.690;2024-01-11T10:02:35;57.47;49.00;69.21;;
41518;Laerm;27249;48.094;-1.690;2024-01-11T10:05:00;57.64;49.47;72.56;;
41518;Laerm;27249;48.094;-1.690;2024-01-11T10:07:25;57.30;50.82;63.79;;
41518;Laerm;27249;48.094;-1.690;2024-01-11T10:09:51;58.04;51.65;63.97;;
41518;Laerm;27249;48.094;-1.690;2024-01-11T10:12:22;58.19;49.19;67.02;;
41518;Laerm;27249;48.094;-1.690;2024-01-11T10:14:49;59.51;51.77;69.57;;
41518;Laerm;27249;48.094;-1.690;2024-01-11T10:17:15;57.09;49.08;63.86;;
41518;Laerm;27249;48.094;-1.690;2024-01-11T10:19:40;58.96;47.42;66.81;;
41518;Laerm;27249;48.094;-1.690;2024-01-11T10:22:05;56.45;46.57;64.20;;
41518;Laerm;27249;48.094;-1.690;2024-01-11T10:24:31;58.51;49.07;66.08;;
41518;Laerm;27249;48.094;-1.690;2024-01-11T10:26:57;56.53;49.59;62.85;;
41518;Laerm;27249;48.094;-1.690;2024-01-11T10:29:26;58.31;49.59;71.37;;
41518;Laerm;27249;48.094;-1.690;2024-01-11T10:31:52;57.44;51.05;63.52;;
41518;Laerm;27249;48.094;-1.690;2024-01-11T10:34:17;58.60;53.01;64.22;;
41518;Laerm;27249;48.094;-1.690;2024-01-11T10:36:43;58.20;50.93;66.37;;
41518;Laerm;27249;48.094;-1.690;2024-01-11T10:39:08;58.53;51.48;64.46;;
41518;Laerm;27249;48.094;-1.690;2024-01-11T10:41:41;57.26;49.20;64.13;;
41518;Laerm;27249;48.094;-1.690;2024-01-11T10:44:13;67.61;50.71;86.21;;
41518;Laerm;27249;48.094;-1.690;2024-01-11T10:46:43;58.38;52.73;65.91;;
41518;Laerm;27249;48.094;-1.690;2024-01-11T10:49:10;59.15;51.30;64.70;;
41518;Laerm;27249;48.094;-1.690;2024-01-11T10:51:36;57.76;49.74;72.55;;
41518;Laerm;27249;48.094;-1.690;2024-01-11T10:54:03;58.28;52.97;64.33;;
41518;Laerm;27249;48.094;-1.690;2024-01-11T10:56:29;57.61;52.79;65.64;;
41518;Laerm;27249;48.094;-1.690;2024-01-11T10:58:56;68.15;54.30;87.00;;
41518;Laerm;27249;48.094;-1.690;2024-01-11T11:01:21;57.23;51.27;64.88;;
41518;Laerm;27249;48.094;-1.690;2024-01-11T11:03:47;57.66;50.26;64.72;;
41518;Laerm;27249;48.094;-1.690;2024-01-11T11:06:13;58.25;49.58;71.94;;
41518;Laerm;27249;48.094;-1.690;2024-01-11T11:08:39;58.06;52.78;63.37;;
41518;Laerm;27249;48.094;-1.690;2024-01-11T11:11:05;58.93;52.11;66.73;;
41518;Laerm;27249;48.094;-1.690;2024-01-11T11:13:31;57.66;52.76;64.54;;
41518;Laerm;27249;48.094;-1.690;2024-01-11T11:15:56;58.18;48.18;72.27;;
41518;Laerm;27249;48.094;-1.690;2024-01-11T11:18:22;57.06;48.67;64.94;;
41518;Laerm;27249;48.094;-1.690;2024-01-11T11:20:48;57.86;51.59;66.31;;
41518;Laerm;27249;48.094;-1.690;2024-01-11T11:23:16;57.53;49.46;63.94;;
41518;Laerm;27249;48.094;-1.690;2024-01-11T11:25:42;58.44;52.95;66.47;;
41518;Laerm;27249;48.094;-1.690;2024-01-11T11:28:08;58.91;51.14;67.84;;
41518;Laerm;27249;48.094;-1.690;2024-01-11T11:30:39;58.55;46.59;66.18;;
41518;Laerm;27249;48.094;-1.690;2024-01-11T11:33:08;59.53;50.56;69.98;;
41518;Laerm;27249;48.094;-1.690;2024-01-11T11:35:34;57.46;49.93;63.32;;
41518;Laerm;27249;48.094;-1.690;2024-01-11T11:37:59;58.69;50.73;64.50;;
41518;Laerm;27249;48.094;-1.690;2024-01-11T11:40:37;57.98;46.87;65.24;;
41518;Laerm;27249;48.094;-1.690;2024-01-11T11:43:07;58.08;53.27;64.06;;
41518;Laerm;27249;48.094;-1.690;2024-01-11T11:45:33;57.21;49.30;63.17;;
41518;Laerm;27249;48.094;-1.690;2024-01-11T11:47:59;57.31;50.03;65.18;;
41518;Laerm;27249;48.094;-1.690;2024-01-11T11:50:24;58.07;51.87;66.27;;
41518;Laerm;27249;48.094;-1.690;2024-01-11T11:52:56;57.56;51.10;64.03;;
41518;Laerm;27249;48.094;-1.690;2024-01-11T11:55:24;57.67;52.31;62.97;;
41518;Laerm;27249;48.094;-1.690;2024-01-11T11:57:53;57.09;47.06;62.11;;
41518;Laerm;27249;48.094;-1.690;2024-01-11T12:00:21;57.28;48.26;63.05;;
41518;Laerm;27249;48.094;-1.690;2024-01-11T12:02:49;58.29;50.78;63.30;;
41518;Laerm;27249;48.094;-1.690;2024-01-11T12:05:16;58.68;48.00;68.20;;
41518;Laerm;27249;48.094;-1.690;2024-01-11T12:07:41;67.70;52.93;85.02;;
41518;Laerm;27249;48.094;-1.690;2024-01-11T12:10:06;57.64;50.83;65.83;;
41518;Laerm;27249;48.094;-1.690;2024-01-11T12:12:32;56.87;49.00;63.29;;
41518;Laerm;27249;48.094;-1.690;2024-01-11T12:14:58;56.99;51.42;62.11;;
41518;Laerm;27249;48.094;-1.690;2024-01-11T12:17:24;56.90;52.95;62.97;;
41518;Laerm;27249;48.094;-1.690;2024-01-11T12:19:51;57.03;48.55;66.67;;
41518;Laerm;27249;48.094;-1.690;2024-01-11T12:22:16;56.29;50.82;70.74;;
41518;Laerm;27249;48.094;-1.690;2024-01-11T12:24:42;57.51;51.55;62.97;;
41518;Laerm;27249;48.094;-1.690;2024-01-11T12:27:07;58.70;49.63;64.33;;
41518;Laerm;27249;48.094;-1.690;2024-01-11T12:29:32;58.39;51.32;71.31;;
41518;Laerm;27249;48.094;-1.690;2024-01-11T12:31:58;57.62;50.48;63.76;;
41518;Laerm;27249;48.094;-1.690;2024-01-11T12:34:23;58.03;50.88;63.63;;
41518;Laerm;27249;48.094;-1.690;2024-01-11T12:36:49;57.40;49.34;68.54;;
41518;Laerm;27249;48.094;-1.690;2024-01-11T12:39:16;59.15;49.85;68.74;;
41518;Laerm;27249;48.094;-1.690;2024-01-11T12:41:41;58.03;49.74;63.19;;
41518;Laerm;27249;48.094;-1.690;2024-01-11T12:44:06;59.06;51.46;67.68;;
41518;Laerm;27249;48.094;-1.690;2024-01-11T12:46:32;58.03;48.49;65.51;;
41518;Laerm;27249;48.094;-1.690;2024-01-11T12:48:57;58.51;48.07;65.83;;
41518;Laerm;27249;48.094;-1.690;2024-01-11T12:51:23;60.44;53.24;71.20;;
41518;Laerm;27249;48.094;-1.690;2024-01-11T12:53:50;58.92;49.15;69.61;;
41518;Laerm;27249;48.094;-1.690;2024-01-11T12:56:15;57.94;50.49;69.31;;
41518;Laerm;27249;48.094;-1.690;2024-01-11T12:58:41;59.07;46.25;71.15;;
41518;Laerm;27249;48.094;-1.690;2024-01-11T13:01:07;57.73;49.32;69.72;;
41518;Laerm;27249;48.094;-1.690;2024-01-11T13:03:35;56.47;49.16;64.34;;
41518;Laerm;27249;48.094;-1.690;2024-01-11T13:06:04;57.83;47.32;63.68;;
41518;Laerm;27249;48.094;-1.690;2024-01-11T13:08:33;58.02;47.77;70.08;;
41518;Laerm;27249;48.094;-1.690;2024-01-11T13:11:04;58.03;52.21;69.97;;
41518;Laerm;27249;48.094;-1.690;2024-01-11T13:13:33;56.97;48.21;63.96;;
41518;Laerm;27249;48.094;-1.690;2024-01-11T13:15:59;58.51;51.87;64.67;;
41518;Laerm;27249;48.094;-1.690;2024-01-11T13:18:24;65.53;51.68;84.92;;
41518;Laerm;27249;48.094;-1.690;2024-01-11T13:20:49;58.51;48.77;65.81;;
41518;Laerm;27249;48.094;-1.690;2024-01-11T13:23:18;58.44;52.18;65.63;;